Time;durP1;ratioP1;P1;durP2;ratioP2;P2;SDS_P1;SDS_P2;PMS_P1;PMS_P2;Temp;Humidity;BMP_temperature;BMP_pressure;BME280_temperature;BME280_humidity;BME280_pressure;Samples;Min_cycle;Max_cycle;Signal;HPM_P1;HPM_P2
2023/05/03 00:00:15;;;;;;;8.50;2.60;;;8.30;99.90;;;;;;5063824;28;20439;-57
2023/05/03 00:02:43;;;;;;;5.57;3.00;;;8.30;99.90;;;;;;5045853;28;20461;-56
2023/05/03 00:05:13;;;;;;;5.50;3.10;;;8.20;99.90;;;;;;5046224;28;20512;-57
2023/05/03 00:07:43;;;;;;;6.57;2.23;;;8.20;99.90;;;;;;5047467;28;20464;-57
2023/05/03 00:10:11;;;;;;;7.23;2.60;;;8.20;99.90;;;;;;5043220;28;21257;-57
2023/05/03 00:12:38;;;;;;;7.10;2.90;;;8.10;99.90;;;;;;5044852;28;20545;-57
2023/05/03 00:15:06;;;;;;;4.57;2.00;;;8.10;99.90;;;;;;5046957;28;20491;-57
2023/05/03 00:17:33;;;;;;;3.20;2.47;;;8.10;99.90;;;;;;5048183;28;20950;-57
2023/05/03 00:20:00;;;;;;;2.80;2.47;;;8.10;99.90;;;;;;5050524;28;20537;-57
2023/05/03 00:22:28;;;;;;;6.17;2.50;;;8.00;99.90;;;;;;5044764;28;20837;-57
2023/05/03 00:24:55;;;;;;;5.33;2.43;;;8.00;99.90;;;;;;5054337;28;20509;-56
2023/05/03 00:27:22;;;;;;;6.03;2.47;;;8.00;99.90;;;;;;5056048;28;20516;-56
2023/05/03 00:29:51;;;;;;;4.40;2.57;;;8.00;99.90;;;;;;5053623;28;20522;-56
2023/05/03 00:32:17;;;;;;;8.40;3.27;;;8.00;99.90;;;;;;5055076;28;21017;-57
2023/05/03 00:34:44;;;;;;;10.13;3.10;;;8.00;99.90;;;;;;5049850;28;20460;-56
2023/05/03 00:37:11;;;;;;;6.10;2.90;;;8.00;99.90;;;;;;5063593;28;20569;-54
2023/05/03 00:39:38;;;;;;;8.27;2.60;;;8.00;99.90;;;;;;5054721;28;20515;-53
2023/05/03 00:42:05;;;;;;;7.57;2.90;;;8.00;99.90;;;;;;5055389;28;20487;-55
2023/05/03 00:44:32;;;;;;;3.93;2.47;;;7.90;99.90;;;;;;5063280;28;20469;-52
2023/05/03 00:46:58;;;;;;;7.60;3.17;;;7.90;99.90;;;;;;5073335;28;20453;-53
2023/05/03 00:49:25;;;;;;;5.57;2.77;;;7.90;99.90;;;;;;5067502;28;20481;-53
2023/05/03 00:51:53;;;;;;;8.20;2.50;;;7.90;99.90;;;;;;5061198;28;20488;-55
2023/05/03 00:54:21;;;;;;;8.83;2.87;;;7.80;96.90;;;;;;5066861;28;20459;-56
2023/05/03 00:56:48;;;;;;;11.40;2.70;;;7.80;99.90;;;;;;5065845;28;20493;-54
2023/05/03 00:59:15;;;;;;;5.07;2.50;;;7.70;95.50;;;;;;5076685;28;20447;-55
2023/05/03 01:01:42;;;;;;;6.80;2.53;;;7.60;85.00;;;;;;5068322;28;20465;-53
2023/05/03 01:04:09;;;;;;;4.23;2.13;;;7.60;80.20;;;;;;5089508;28;20448;-57
2023/05/03 01:06:44;;;;;;;2.60;2.17;;;7.50;66.60;;;;;;5090373;28;20969;-65
2023/05/03 01:09:16;;;;;;;3.63;2.60;;;7.50;64.80;;;;;;5053909;28;20543;-53
2023/05/03 01:11:59;;;;;;;9.00;2.40;;;7.40;61.80;;;;;;5045818;28;20486;-60
2023/05/03 01:14:32;;;;;;;8.03;2.80;;;7.30;39.70;;;;;;5052662;28;20923;-52
2023/05/03 01:17:07;;;;;;;5.63;2.30;;;7.30;30.20;;;;;;5054498;28;20449;-54
2023/05/03 01:19:36;;;;;;;3.93;2.60;;;7.30;21.70;;;;;;5052469;28;20473;-54
2023/05/03 01:22:14;;;;;;;6.93;2.47;;;7.20;99.90;;;;;;5049229;28;20951;-57
2023/05/03 01:24:45;;;;;;;4.93;2.67;;;7.20;99.90;;;;;;5053991;28;20451;-54
2023/05/03 01:27:13;;;;;;;4.73;2.80;;;7.20;99.90;;;;;;5047389;28;20448;-53
2023/05/03 01:29:40;;;;;;;2.67;2.43;;;7.10;99.90;;;;;;5045063;28;20488;-52
2023/05/03 01:32:13;;;;;;;4.53;2.57;;;7.00;99.90;;;;;;5038856;28;20481;-54
2023/05/03 01:34:48;;;;;;;7.07;2.70;;;7.00;99.90;;;;;;5041352;28;20461;-54
2023/05/03 01:37:15;;;;;;;3.53;2.50;;;6.90;99.90;;;;;;5048909;28;20496;-53
2023/05/03 01:39:48;;;;;;;6.03;2.20;;;6.80;99.90;;;;;;5050206;28;20514;-53
2023/05/03 01:42:17;;;;;;;9.40;2.50;;;6.70;99.90;;;;;;5050857;28;20871;-54
2023/05/03 01:44:44;;;;;;;5.10;2.30;;;6.60;99.90;;;;;;5045650;28;20488;-53
2023/05/03 01:47:10;;;;;;;8.17;3.17;;;6.50;99.90;;;;;;5039362;28;20949;-53
2023/05/03 01:49:37;;;;;;;5.17;2.30;;;6.40;99.90;;;;;;5040623;28;21006;-53
2023/05/03 01:52:04;;;;;;;5.87;2.63;;;6.30;99.90;;;;;;5051050;28;20542;-52
2023/05/03 01:54:31;;;;;;;5.53;2.90;;;6.30;99.90;;;;;;5045147;28;20465;-53
2023/05/03 01:56:58;;;;;;;3.73;2.37;;;6.20;99.90;;;;;;5041103;28;20492;-53
2023/05/03 01:59:25;;;;;;;3.87;2.37;;;6.10;99.90;;;;;;5062893;28;20528;-54
2023/05/03 02:01:52;;;;;;;3.27;2.10;;;6.10;99.90;;;;;;5042912;28;20497;-53
2023/05/03 02:04:19;;;;;;;5.33;2.17;;;6.00;99.90;;;;;;5044721;28;20862;-53
2023/05/03 02:06:45;;;;;;;6.23;2.47;;;5.90;99.90;;;;;;5042463;28;20469;-52
2023/05/03 02:09:12;;;;;;;3.07;2.20;;;5.80;94.60;;;;;;5039340;28;20518;-53
2023/05/03 02:11:39;;;;;;;5.07;2.30;;;5.70;74.90;;;;;;5048963;28;20488;-54
2023/05/03 02:14:06;;;;;;;8.80;2.80;;;5.70;69.80;;;;;;5050107;28;20462;-53
2023/05/03 02:16:34;;;;;;;9.27;3.43;;;5.60;70.40;;;;;;5049657;28;20845;-54
2023/05/03 02:19:01;;;;;;;5.70;2.30;;;5.60;68.10;;;;;;5046615;28;20866;-54
2023/05/03 02:21:28;;;;;;;6.80;2.77;;;5.50;63.00;;;;;;5051172;28;20466;-53
2023/05/03 02:23:54;;;;;;;7.20;2.73;;;5.50;65.00;;;;;;5046711;28;20602;-53
2023/05/03 02:26:21;;;;;;;4.67;2.90;;;5.40;59.50;;;;;;5053579;28;20481;-52
2023/05/03 02:28:48;;;;;;;4.90;2.53;;;5.40;63.10;;;;;;5052258;28;22544;-52
2023/05/03 02:31:14;;;;;;;6.50;2.57;;;5.40;45.20;;;;;;5053858;28;20543;-53
2023/05/03 02:33:42;;;;;;;4.50;2.67;;;5.30;55.30;;;;;;5050862;28;20491;-53
2023/05/03 02:36:09;;;;;;;5.00;2.63;;;5.30;44.30;;;;;;5065287;28;20512;-52
2023/05/03 02:38:36;;;;;;;5.10;3.70;;;5.10;46.00;;;;;;5046672;28;20513;-53
2023/05/03 02:41:02;;;;;;;8.40;2.87;;;5.10;46.90;;;;;;5056213;28;20518;-54
2023/05/03 02:43:29;;;;;;;3.30;3.00;;;5.10;48.30;;;;;;5051976;28;20460;-53
2023/05/03 02:45:56;;;;;;;5.83;3.30;;;5.00;35.20;;;;;;5045293;28;20492;-53
2023/05/03 02:48:22;;;;;;;4.67;3.00;;;4.90;37.80;;;;;;5056507;28;20480;-53
2023/05/03 02:50:50;;;;;;;7.77;3.77;;;4.80;33.20;;;;;;5059363;28;20457;-53
2023/05/03 02:53:17;;;;;;;8.83;3.30;;;4.70;29.20;;;;;;5044977;28;20476;-52
2023/05/03 02:55:44;;;;;;;9.17;3.07;;;4.70;99.90;;;;;;5057107;28;20459;-53
2023/05/03 02:58:10;;;;;;;8.77;3.20;;;4.70;99.90;;;;;;5048402;28;20484;-53
2023/05/03 03:00:37;;;;;;;11.70;2.90;;;4.70;99.90;;;;;;5054297;28;20515;-53
2023/05/03 03:03:04;;;;;;;5.40;2.60;;;4.60;99.90;;;;;;5051800;28;20481;-52
2023/05/03 03:05:30;;;;;;;4.70;3.03;;;4.60;99.90;;;;;;5052328;28;20531;-53
2023/05/03 03:07:58;;;;;;;3.63;2.70;;;4.50;99.90;;;;;;5046327;28;20485;-55
2023/05/03 03:10:25;;;;;;;8.53;2.70;;;4.40;99.90;;;;;;5073622;22;20539;-53
2023/05/03 03:12:51;;;;;;;7.00;2.53;;;4.40;99.90;;;;;;5083982;28;20515;-53
2023/05/03 03:15:18;;;;;;;5.67;3.07;;;4.40;99.90;;;;;;5090405;28;20459;-53
2023/05/03 03:17:44;;;;;;;10.63;3.60;;;4.40;99.90;;;;;;5088437;28;20541;-51
2023/05/03 03:20:12;;;;;;;5.20;2.60;;;4.30;99.90;;;;;;5086493;28;20509;-51
2023/05/03 03:22:39;;;;;;;2.47;2.27;;;4.20;99.90;;;;;;5088032;28;20458;-52
2023/05/03 03:25:08;;;;;;;5.80;2.73;;;4.20;99.90;;;;;;5085230;28;20459;-51
2023/05/03 03:27:34;;;;;;;3.33;2.63;;;4.30;99.90;;;;;;5083818;28;20553;-51
2023/05/03 03:30:01;;;;;;;5.60;3.10;;;4.20;99.90;;;;;;5087858;28;20498;-52
2023/05/03 03:32:28;;;;;;;2.93;2.53;;;4.10;99.90;;;;;;5086729;28;20492;-52
2023/05/03 03:34:54;;;;;;;3.83;3.43;;;4.00;99.90;;;;;;5086439;28;20543;-52
2023/05/03 03:37:22;;;;;;;11.07;2.67;;;3.90;99.90;;;;;;5086814;28;20463;-53
2023/05/03 03:39:48;;;;;;;5.00;2.53;;;3.90;99.90;;;;;;5088348;28;20513;-53
2023/05/03 03:42:16;;;;;;;7.10;2.93;;;3.80;99.90;;;;;;5089118;28;20559;-56
2023/05/03 03:44:43;;;;;;;7.33;2.50;;;3.80;99.90;;;;;;5087783;28;20442;-53
2023/05/03 03:47:09;;;;;;;5.27;2.77;;;3.70;99.90;;;;;;5086737;28;20871;-52
2023/05/03 03:49:36;;;;;;;3.33;2.80;;;3.70;99.90;;;;;;5084151;28;20496;-51
2023/05/03 03:52:03;;;;;;;4.70;2.60;;;3.70;99.90;;;;;;5083260;28;21091;-51
2023/05/03 03:54:29;;;;;;;7.43;3.07;;;3.60;99.90;;;;;;5090140;28;20912;-52
2023/05/03 03:56:56;;;;;;;12.93;3.27;;;3.60;99.90;;;;;;5086828;28;20459;-52
2023/05/03 03:59:24;;;;;;;7.13;3.40;;;3.60;99.90;;;;;;5090836;28;20491;-51
2023/05/03 04:01:50;;;;;;;6.13;2.77;;;3.60;99.90;;;;;;5092068;28;20994;-51
2023/05/03 04:04:17;;;;;;;6.27;3.00;;;3.60;99.90;;;;;;5094241;28;20463;-52
2023/05/03 04:06:43;;;;;;;5.23;3.27;;;3.70;99.90;;;;;;5090126;28;20461;-51
2023/05/03 04:09:10;;;;;;;5.23;3.00;;;3.70;99.90;;;;;;5092513;28;20516;-51
2023/05/03 04:11:37;;;;;;;11.03;3.00;;;3.60;99.90;;;;;;5090261;28;20514;-51
2023/05/03 04:14:04;;;;;;;9.60;3.23;;;3.70;99.90;;;;;;5089882;28;21157;-50
2023/05/03 04:16:32;;;;;;;8.70;3.60;;;3.70;99.90;;;;;;5083182;28;20884;-51
2023/05/03 04:18:58;;;;;;;9.20;2.57;;;3.70;99.90;;;;;;5090129;28;20467;-52
2023/05/03 04:21:27;;;;;;;3.07;2.47;;;3.80;99.90;;;;;;5089959;28;20535;-51
2023/05/03 04:23:54;;;;;;;4.17;2.73;;;3.80;99.90;;;;;;5090040;28;20466;-54
2023/05/03 04:26:23;;;;;;;8.73;2.83;;;3.90;99.90;;;;;;5094288;28;20463;-52
2023/05/03 04:28:50;;;;;;;6.93;3.00;;;3.90;99.90;;;;;;5092622;28;20502;-52
2023/05/03 04:31:19;;;;;;;8.40;3.33;;;3.90;99.90;;;;;;5093862;28;20487;-51
2023/05/03 04:33:48;;;;;;;9.13;2.97;;;3.90;99.90;;;;;;5088222;28;20566;-52
2023/05/03 04:36:15;;;;;;;5.37;2.63;;;4.00;99.90;;;;;;5094361;28;20987;-52
2023/05/03 04:38:41;;;;;;;6.97;2.80;;;4.00;99.90;;;;;;5090897;28;20507;-51
2023/05/03 04:41:08;;;;;;;7.30;3.30;;;4.10;99.90;;;;;;5087548;28;20861;-52
2023/05/03 04:43:35;;;;;;;8.90;3.00;;;4.20;99.90;;;;;;5088206;28;21216;-52
2023/05/03 04:46:02;;;;;;;6.53;2.80;;;4.20;99.90;;;;;;5092955;28;20966;-51
2023/05/03 04:48:29;;;;;;;8.10;3.10;;;4.30;99.90;;;;;;5092677;28;20466;-51
2023/05/03 04:50:57;;;;;;;10.73;3.10;;;4.40;99.90;;;;;;5089058;28;20486;-51
2023/05/03 04:53:23;;;;;;;8.10;2.83;;;4.50;99.90;;;;;;5092970;28;20515;-50
2023/05/03 04:55:50;;;;;;;4.77;2.80;;;4.60;99.90;;;;;;5092363;28;20473;-51
2023/05/03 04:58:17;;;;;;;11.20;3.20;;;4.70;99.90;;;;;;5084446;28;20463;-51
2023/05/03 05:00:45;;;;;;;11.53;3.10;;;4.80;99.90;;;;;;5090847;28;20995;-52
2023/05/03 05:03:12;;;;;;;20.03;3.23;;;4.90;99.90;;;;;;5088406;28;20467;-52
2023/05/03 05:05:38;;;;;;;8.73;2.97;;;4.90;99.90;;;;;;5091731;28;20537;-51
2023/05/03 05:08:07;;;;;;;11.80;3.00;;;5.00;20.10;;;;;;5089262;28;20465;-51
2023/05/03 05:10:37;;;;;;;6.80;2.70;;;5.10;91.40;;;;;;5093891;28;20468;-51
2023/05/03 05:13:04;;;;;;;13.67;2.90;;;5.30;99.90;;;;;;5091218;28;20483;-51
2023/05/03 05:15:30;;;;;;;6.40;3.00;;;5.40;99.90;;;;;;5090959;28;20458;-52
2023/05/03 05:17:57;;;;;;;11.03;3.33;;;5.50;99.90;;;;;;5089667;28;20490;-51
2023/05/03 05:20:24;;;;;;;7.23;2.67;;;5.60;99.90;;;;;;5093834;28;20842;-52
2023/05/03 05:22:50;;;;;;;8.03;2.97;;;5.60;99.90;;;;;;5090320;28;20538;-51
2023/05/03 05:25:19;;;;;;;7.00;2.70;;;5.80;99.90;;;;;;5091282;28;20558;-52
2023/05/03 05:27:45;;;;;;;9.03;3.20;;;5.80;99.90;;;;;;5093917;28;20443;-52
2023/05/03 05:30:13;;;;;;;13.33;2.70;;;5.80;99.90;;;;;;5091374;28;20483;-51
2023/05/03 05:32:39;;;;;;;6.43;2.53;;;5.80;99.90;;;;;;5092815;28;20481;-52
2023/05/03 05:35:06;;;;;;;9.07;2.90;;;6.00;99.90;;;;;;5093309;28;20497;-53
2023/05/03 05:37:33;;;;;;;11.30;3.33;;;5.90;99.90;;;;;;5093750;28;20455;-52
2023/05/03 05:40:00;;;;;;;4.70;2.93;;;6.10;99.90;;;;;;5083408;28;20461;-51
2023/05/03 05:42:28;;;;;;;5.97;2.80;;;6.10;99.90;;;;;;5087379;28;20483;-52
2023/05/03 05:44:56;;;;;;;6.47;3.53;;;6.30;99.90;;;;;;5086647;28;20459;-51
2023/05/03 05:47:22;;;;;;;13.00;3.00;;;6.20;99.90;;;;;;5081578;28;20873;-52
2023/05/03 05:49:49;;;;;;;8.47;3.40;;;6.30;99.90;;;;;;5087746;28;20487;-51
2023/05/03 05:52:16;;;;;;;6.80;2.70;;;6.40;99.90;;;;;;5086562;28;20588;-51
2023/05/03 05:54:42;;;;;;;6.20;3.00;;;6.50;99.90;;;;;;5092962;28;20446;-51
2023/05/03 05:57:09;;;;;;;19.03;2.50;;;6.70;99.90;;;;;;5088128;28;21167;-52
2023/05/03 05:59:37;;;;;;;9.80;3.60;;;6.70;99.90;;;;;;5087940;28;20457;-52
2023/05/03 06:02:04;;;;;;;3.33;2.40;;;6.80;99.90;;;;;;5093324;28;20488;-52
2023/05/03 06:04:30;;;;;;;5.23;2.40;;;6.80;99.90;;;;;;5091042;28;20517;-52
2023/05/03 06:06:57;;;;;;;12.53;3.00;;;6.90;99.90;;;;;;5092916;28;20947;-51
2023/05/03 06:09:23;;;;;;;9.67;2.50;;;7.00;99.90;;;;;;5092756;28;20450;-52
2023/05/03 06:11:50;;;;;;;4.63;2.50;;;7.20;99.90;;;;;;5092750;28;20516;-52
2023/05/03 06:14:19;;;;;;;5.70;2.63;;;7.20;99.90;;;;;;5087491;28;20493;-54
2023/05/03 06:16:47;;;;;;;10.03;2.90;;;7.30;99.90;;;;;;5093126;28;20493;-52
2023/05/03 06:19:14;;;;;;;6.37;2.13;;;7.40;99.90;;;;;;5083908;28;20865;-50
2023/05/03 06:21:40;;;;;;;17.53;2.87;;;7.50;99.90;;;;;;5092352;28;20471;-52
2023/05/03 06:24:07;;;;;;;9.00;2.50;;;7.50;99.90;;;;;;5091484;28;20443;-52
2023/05/03 06:26:34;;;;;;;5.43;2.70;;;7.70;99.90;;;;;;5092643;28;20450;-52
2023/05/03 06:29:02;;;;;;;9.70;2.40;;;7.80;77.60;;;;;;5092937;28;20501;-51
2023/05/03 06:31:29;;;;;;;7.63;2.50;;;8.00;99.90;;;;;;5091507;28;20477;-52
2023/05/03 06:33:57;;;;;;;14.93;3.43;;;8.20;99.90;;;;;;5092167;28;20488;-50
2023/05/03 06:36:24;;;;;;;10.10;2.73;;;8.40;23.70;;;;;;5087170;28;20479;-53
2023/05/03 06:38:51;;;;;;;6.13;2.50;;;8.70;32.50;;;;;;5092087;28;20486;-52
2023/05/03 06:41:17;;;;;;;10.40;2.77;;;9.00;53.30;;;;;;5090666;28;20475;-51
2023/05/03 06:43:44;;;;;;;11.33;2.23;;;9.00;66.80;;;;;;5092147;28;20438;-53
2023/05/03 06:46:11;;;;;;;12.83;2.67;;;8.60;62.50;;;;;;5092330;28;20437;-53
2023/05/03 06:48:38;;;;;;;9.70;2.70;;;8.90;59.30;;;;;;5091247;28;20454;-53
2023/05/03 06:51:06;;;;;;;9.00;2.50;;;9.30;64.20;;;;;;5091130;28;21059;-53
2023/05/03 06:53:32;;;;;;;7.33;2.23;;;9.20;88.10;;;;;;5091830;28;20540;-52
2023/05/03 06:55:59;;;;;;;6.17;2.37;;;9.50;82.10;;;;;;5091697;28;20458;-51
2023/05/03 06:58:26;;;;;;;8.03;2.30;;;9.90;99.90;;;;;;5088046;28;20455;-51
2023/05/03 07:00:53;;;;;;;8.90;2.40;;;10.20;99.90;;;;;;5086192;28;20940;-50
2023/05/03 07:03:19;;;;;;;9.57;2.87;;;10.40;99.90;;;;;;5091814;28;20442;-51
2023/05/03 07:05:46;;;;;;;8.03;2.30;;;10.80;99.90;;;;;;5088606;28;20463;-52
2023/05/03 07:08:14;;;;;;;6.53;2.30;;;11.00;99.90;;;;;;5091023;28;20443;-52
2023/05/03 07:10:40;;;;;;;12.27;2.27;;;10.70;99.90;;;;;;5090821;28;20521;-52
2023/05/03 07:13:07;;;;;;;5.50;2.40;;;10.70;99.90;;;;;;5091866;28;20483;-51
2023/05/03 07:15:34;;;;;;;13.13;2.73;;;10.80;99.90;;;;;;5091644;28;20505;-56
2023/05/03 07:18:00;;;;;;;17.47;2.57;;;10.80;99.90;;;;;;5091031;28;20532;-55
2023/05/03 07:20:27;;;;;;;4.60;1.80;;;11.00;99.90;;;;;;5089691;28;20539;-55
2023/05/03 07:22:53;;;;;;;11.97;2.40;;;10.80;99.90;;;;;;5083307;28;20506;-57
2023/05/03 07:25:21;;;;;;;10.77;2.33;;;11.00;99.90;;;;;;5086605;28;20525;-53
2023/05/03 07:27:48;;;;;;;5.73;1.97;;;10.50;99.90;;;;;;5087760;28;20555;-54
2023/05/03 07:30:15;;;;;;;8.70;2.57;;;10.60;99.90;;;;;;5086610;28;20522;-55
2023/05/03 07:32:41;;;;;;;13.07;2.60;;;10.70;99.90;;;;;;5090163;28;20487;-54
2023/05/03 07:35:09;;;;;;;2.30;1.80;;;10.90;99.90;;;;;;5093694;28;21015;-53
2023/05/03 07:37:37;;;;;;;22.33;2.40;;;10.90;99.90;;;;;;5083756;28;20534;-53
2023/05/03 07:40:06;;;;;;;5.40;2.07;;;10.90;99.90;;;;;;5089759;28;20482;-52
2023/05/03 07:42:34;;;;;;;6.27;2.07;;;10.70;99.90;;;;;;5086012;28;20458;-53
2023/05/03 07:45:01;;;;;;;7.00;2.10;;;10.60;99.90;;;;;;5094376;28;20500;-53
2023/05/03 07:47:28;;;;;;;7.40;2.33;;;10.60;99.90;;;;;;5089157;28;20463;-55
2023/05/03 07:49:54;;;;;;;10.17;1.80;;;10.70;99.90;;;;;;5090280;28;20537;-54
2023/05/03 07:52:21;;;;;;;6.13;2.33;;;10.90;99.90;;;;;;5094436;28;20462;-55
2023/05/03 07:54:48;;;;;;;7.60;2.27;;;11.10;99.90;;;;;;5087331;28;20484;-55
2023/05/03 07:57:15;;;;;;;12.33;2.20;;;10.90;99.90;;;;;;5093266;28;20468;-53
2023/05/03 07:59:43;;;;;;;7.73;2.40;;;10.90;99.90;;;;;;5086859;28;20540;-53
2023/05/03 08:02:09;;;;;;;3.43;1.50;;;11.10;99.90;;;;;;5092135;28;20967;-53
2023/05/03 08:04:36;;;;;;;6.43;2.03;;;11.30;99.90;;;;;;5089383;28;20488;-54
2023/05/03 08:07:03;;;;;;;7.53;2.47;;;11.30;99.90;;;;;;5094264;28;20491;-53
2023/05/03 08:09:30;;;;;;;7.53;2.30;;;11.50;99.90;;;;;;5088830;28;20506;-53
2023/05/03 08:11:57;;;;;;;3.77;2.20;;;11.70;99.90;;;;;;5091715;28;20931;-54
2023/05/03 08:14:24;;;;;;;12.40;2.13;;;11.60;99.90;;;;;;5091416;28;20537;-53
2023/05/03 08:16:52;;;;;;;6.67;2.63;;;11.80;99.90;;;;;;5092766;28;20470;-53
2023/05/03 08:19:18;;;;;;;14.63;2.37;;;12.30;99.90;;;;;;5085975;28;20517;-53
2023/05/03 08:21:45;;;;;;;5.37;2.33;;;12.70;99.90;;;;;;5084932;28;20516;-55
2023/05/03 08:24:12;;;;;;;3.20;1.60;;;12.80;99.90;;;;;;5093586;28;20454;-53
2023/05/03 08:26:39;;;;;;;4.33;1.87;;;13.00;99.90;;;;;;5081047;28;20462;-54
2023/05/03 08:29:06;;;;;;;3.43;1.70;;;12.90;99.90;;;;;;5088684;28;20516;-54
2023/05/03 08:31:33;;;;;;;4.53;2.23;;;13.10;99.90;;;;;;5087225;28;20479;-54
2023/05/03 08:34:02;;;;;;;6.47;2.50;;;12.80;99.90;;;;;;5092104;28;20487;-53
2023/05/03 08:36:29;;;;;;;6.30;2.40;;;12.90;99.90;;;;;;5092857;28;20460;-55
2023/05/03 08:38:55;;;;;;;4.60;2.00;;;13.20;99.90;;;;;;5091427;28;20527;-54
2023/05/03 08:41:27;;;;;;;9.17;2.73;;;13.40;99.90;;;;;;5091812;28;20508;-53
2023/05/03 08:43:54;;;;;;;6.93;2.90;;;13.70;99.90;;;;;;5090815;28;20536;-54
2023/05/03 08:46:22;;;;;;;6.57;2.20;;;14.10;99.90;;;;;;5093050;28;20552;-53
2023/05/03 08:48:51;;;;;;;6.77;2.90;;;14.10;99.90;;;;;;5091769;28;20471;-54
2023/05/03 08:51:20;;;;;;;14.63;2.37;;;14.60;99.90;;;;;;5092497;28;20502;-55
2023/05/03 08:53:46;;;;;;;5.00;2.10;;;15.10;99.90;;;;;;5088831;28;20564;-54
2023/05/03 08:56:20;;;;;;;6.73;2.17;;;15.10;99.90;;;;;;5093013;28;21021;-50
2023/05/03 08:58:46;;;;;;;3.90;2.03;;;15.70;99.90;;;;;;5088885;28;20496;-52
2023/05/03 09:01:13;;;;;;;6.53;1.90;;;15.90;99.90;;;;;;5089172;28;21147;-52
2023/05/03 09:03:39;;;;;;;7.80;2.50;;;16.40;99.90;;;;;;5091182;28;20485;-52
2023/05/03 09:06:21;;;;;;;6.20;2.20;;;16.40;99.90;;;;;;5092620;28;20984;-51
2023/05/03 09:08:47;;;;;;;4.50;2.23;;;16.10;99.90;;;;;;5092100;28;20466;-53
2023/05/03 09:11:21;;;;;;;4.57;1.80;;;16.40;99.90;;;;;;5079857;22;20570;-49
2023/05/03 09:13:47;;;;;;;4.70;2.37;;;16.10;99.90;;;;;;5048841;28;20485;-49
2023/05/03 09:16:22;;;;;;;4.73;1.97;;;16.50;99.90;;;;;;5046710;28;20493;-50
2023/05/03 09:18:57;;;;;;;3.80;1.90;;;15.30;99.90;;;;;;5050112;28;20465;-49
2023/05/03 09:21:25;;;;;;;3.77;2.00;;;16.00;99.90;;;;;;5051901;28;20536;-49
2023/05/03 09:23:52;;;;;;;7.23;2.17;;;16.10;99.90;;;;;;5045050;28;20860;-49
2023/05/03 09:26:28;;;;;;;6.10;2.33;;;16.30;99.90;;;;;;5047631;28;20492;-49
2023/05/03 09:28:55;;;;;;;10.40;2.20;;;16.20;99.90;;;;;;5051632;28;20461;-50
2023/05/03 09:31:22;;;;;;;2.23;1.80;;;16.10;99.90;;;;;;5048388;28;20505;-49
2023/05/03 09:33:49;;;;;;;8.47;3.07;;;16.40;99.90;;;;;;5061913;28;20470;-49
2023/05/03 09:36:16;;;;;;;7.83;3.33;;;17.40;99.90;;;;;;5044058;28;20472;-50
2023/05/03 09:38:44;;;;;;;9.50;1.87;;;17.70;99.90;;;;;;5047591;28;20553;-50
2023/05/03 09:41:11;;;;;;;3.53;2.60;;;17.50;99.90;;;;;;5059997;28;20516;-50
2023/05/03 09:43:49;;;;;;;6.80;3.10;;;18.00;99.90;;;;;;5054142;28;20459;-50
2023/05/03 09:46:15;;;;;;;8.40;2.37;;;18.10;99.90;;;;;;5047250;28;20468;-50
2023/05/03 09:48:42;;;;;;;2.90;2.20;;;17.60;99.90;;;;;;5044203;28;20840;-49
2023/05/03 09:51:10;;;;;;;6.40;2.47;;;17.70;99.90;;;;;;5050665;28;20479;-50
2023/05/03 09:53:38;;;;;;;7.23;2.87;;;18.20;99.90;;;;;;5044851;28;20467;-49
2023/05/03 09:56:11;;;;;;;3.37;1.77;;;17.50;99.90;;;;;;5041147;28;20477;-50
2023/05/03 09:58:38;;;;;;;4.97;1.97;;;17.30;99.90;;;;;;5046783;28;20522;-49
2023/05/03 10:01:05;;;;;;;12.23;2.73;;;18.40;99.90;;;;;;5050188;28;20561;-49
2023/05/03 10:03:37;;;;;;;8.20;1.80;;;17.50;99.90;;;;;;5045875;28;20442;-50
2023/05/03 10:06:08;;;;;;;5.10;2.13;;;15.50;99.90;;;;;;5047374;28;20544;-50
2023/05/03 10:08:40;;;;;;;5.60;2.03;;;16.00;99.90;;;;;;5036383;28;20451;-49
2023/05/03 10:11:12;;;;;;;9.80;2.60;;;16.00;99.90;;;;;;5053432;28;20513;-50
2023/05/03 10:13:39;;;;;;;7.13;2.50;;;15.90;99.90;;;;;;5056727;28;20457;-49
2023/05/03 10:16:10;;;;;;;10.63;3.30;;;16.70;99.90;;;;;;5043646;28;21011;-50
2023/05/03 10:18:51;;;;;;;4.33;2.27;;;16.80;99.90;;;;;;5044189;28;20462;-50
2023/05/03 10:21:26;;;;;;;4.57;2.00;;;17.00;99.90;;;;;;5066747;28;20481;-49
2023/05/03 10:24:09;;;;;;;8.37;1.83;;;17.40;99.90;;;;;;5061431;28;20507;-49
2023/05/03 10:26:39;;;;;;;10.50;2.77;;;16.50;99.90;;;;;;5041481;28;20486;-49
2023/05/03 10:29:06;;;;;;;5.03;2.50;;;17.70;99.90;;;;;;5046943;28;20483;-50
2023/05/03 10:31:45;;;;;;;4.67;1.80;;;17.20;99.90;;;;;;5050401;28;21020;-49
2023/05/03 10:34:20;;;;;;;4.70;2.10;;;17.20;99.90;;;;;;5033390;28;20498;-49
2023/05/03 10:36:49;;;;;;;7.33;2.20;;;17.40;99.90;;;;;;5050701;28;20927;-49
2023/05/03 10:39:17;;;;;;;14.20;2.80;;;17.90;99.90;;;;;;5049384;28;20471;-51
2023/05/03 10:41:45;;;;;;;4.03;2.10;;;18.00;99.90;;;;;;5055875;28;20482;-49
2023/05/03 10:44:29;;;;;;;19.43;2.13;;;18.50;99.90;;;;;;5058376;28;20450;-50
2023/05/03 10:46:57;;;;;;;9.50;1.80;;;17.80;99.90;;;;;;5050932;28;20530;-51
2023/05/03 10:49:25;;;;;;;3.63;1.60;;;17.20;99.90;;;;;;5043905;28;20462;-49
2023/05/03 10:51:52;;;;;;;5.20;2.03;;;18.00;99.90;;;;;;5041280;28;20482;-49
2023/05/03 10:54:19;;;;;;;7.13;2.00;;;16.90;99.90;;;;;;5046143;28;20484;-50
2023/05/03 10:56:55;;;;;;;5.13;2.13;;;16.00;99.90;;;;;;5037701;28;20469;-49
2023/05/03 10:59:24;;;;;;;7.93;2.40;;;16.90;99.90;;;;;;5045933;28;20515;-50
2023/05/03 11:01:52;;;;;;;6.87;2.07;;;16.60;99.90;;;;;;5055483;28;20489;-50
2023/05/03 11:04:32;;;;;;;4.23;1.67;;;17.40;99.90;;;;;;5034462;28;20486;-50
2023/05/03 11:06:59;;;;;;;14.90;2.13;;;17.70;99.90;;;;;;5048881;28;20884;-50
2023/05/03 11:09:31;;;;;;;9.70;2.63;;;18.00;99.90;;;;;;5050977;28;20463;-49
2023/05/03 11:12:03;;;;;;;6.47;2.47;;;17.50;99.90;;;;;;5048275;28;21024;-49
2023/05/03 11:14:29;;;;;;;8.43;2.77;;;18.10;99.90;;;;;;5040665;28;20485;-49
2023/05/03 11:16:56;;;;;;;3.60;1.57;;;18.60;99.90;;;;;;5051671;28;20949;-49
2023/05/03 11:19:24;;;;;;;7.67;1.93;;;18.40;99.90;;;;;;5042358;28;20870;-49
2023/05/03 11:21:52;;;;;;;6.07;1.93;;;18.80;99.90;;;;;;5036525;28;20518;-51
2023/05/03 11:24:19;;;;;;;19.13;1.90;;;18.70;99.90;;;;;;5036984;28;20473;-50
2023/05/03 11:26:45;;;;;;;18.80;2.20;;;16.70;99.90;;;;;;5054019;28;20461;-49
2023/05/03 11:29:15;;;;;;;6.73;2.07;;;17.30;99.90;;;;;;5049528;28;20461;-49
2023/05/03 11:31:42;;;;;;;8.37;2.67;;;18.00;99.90;;;;;;5043317;28;20481;-49
2023/05/03 11:34:09;;;;;;;2.90;1.80;;;18.20;99.90;;;;;;5039681;28;20458;-49
2023/05/03 11:36:36;;;;;;;9.30;2.17;;;18.10;99.90;;;;;;5053118;28;20480;-50
2023/05/03 11:39:04;;;;;;;11.63;1.90;;;18.30;99.90;;;;;;5046560;28;20502;-49
2023/05/03 11:41:31;;;;;;;4.80;2.23;;;18.30;99.90;;;;;;5047617;28;20553;-50
2023/05/03 11:43:58;;;;;;;7.07;2.23;;;17.30;99.90;;;;;;5052586;28;20842;-49
2023/05/03 11:46:28;;;;;;;10.30;2.23;;;17.50;99.90;;;;;;5065246;28;20458;-49
2023/05/03 11:48:55;;;;;;;14.00;2.13;;;17.40;99.90;;;;;;5063776;28;20470;-49
2023/05/03 11:51:23;;;;;;;4.33;2.27;;;17.10;99.90;;;;;;5052379;28;20496;-49
2023/05/03 11:53:56;;;;;;;4.67;2.03;;;17.60;99.90;;;;;;5066432;28;20470;-49
2023/05/03 11:56:24;;;;;;;6.37;2.37;;;17.20;99.90;;;;;;5070740;28;20555;-49
2023/05/03 11:58:54;;;;;;;5.47;1.93;;;18.10;99.90;;;;;;5058823;28;21067;-50
2023/05/03 12:01:23;;;;;;;6.30;2.10;;;17.90;99.90;;;;;;5061471;28;20481;-60
2023/05/03 12:03:55;;;;;;;3.60;1.83;;;18.20;99.90;;;;;;5049624;28;20524;-49
2023/05/03 12:06:22;;;;;;;4.67;2.30;;;18.20;99.90;;;;;;5046754;28;21026;-49
2023/05/03 12:08:49;;;;;;;7.07;2.60;;;18.30;99.90;;;;;;5051677;28;20497;-49
2023/05/03 12:11:16;;;;;;;13.90;1.97;;;18.20;99.90;;;;;;5041998;28;20493;-48
2023/05/03 12:13:43;;;;;;;10.43;2.13;;;18.00;99.90;;;;;;5055270;28;20988;-50
2023/05/03 12:16:10;;;;;;;6.50;2.20;;;17.80;99.90;;;;;;5046490;28;20535;-50
2023/05/03 12:18:52;;;;;;;4.20;2.00;;;17.40;99.90;;;;;;5045054;28;20465;-49
2023/05/03 12:21:21;;;;;;;4.63;2.27;;;17.70;99.90;;;;;;5043066;28;20485;-48
2023/05/03 12:23:49;;;;;;;3.80;1.80;;;18.50;99.90;;;;;;5046718;28;20462;-50
2023/05/03 12:26:16;;;;;;;7.70;2.13;;;18.40;99.90;;;;;;5054753;28;20465;-49
2023/05/03 12:28:43;;;;;;;5.07;1.87;;;19.10;99.90;;;;;;5041368;28;20459;-49
2023/05/03 12:31:09;;;;;;;5.67;2.07;;;19.70;99.90;;;;;;5062537;28;20476;-49
2023/05/03 12:33:36;;;;;;;6.20;1.70;;;20.20;99.90;;;;;;5076379;28;20479;-49
2023/05/03 12:36:03;;;;;;;7.93;2.27;;;19.80;99.90;;;;;;5069269;28;20465;-49
2023/05/03 12:38:31;;;;;;;8.20;2.70;;;19.30;99.90;;;;;;5075888;28;20446;-49
2023/05/03 12:40:58;;;;;;;6.63;2.20;;;19.50;99.90;;;;;;5064203;28;20483;-50
2023/05/03 12:43:25;;;;;;;6.90;2.37;;;19.50;99.90;;;;;;5057475;28;20472;-51
2023/05/03 12:45:51;;;;;;;13.53;2.20;;;19.70;99.90;;;;;;5051536;28;20880;-50
2023/05/03 12:48:18;;;;;;;2.20;1.80;;;18.50;99.90;;;;;;5050669;28;20521;-49
2023/05/03 12:50:44;;;;;;;10.83;1.40;;;18.20;99.90;;;;;;5044249;28;20510;-49
2023/05/03 12:53:11;;;;;;;6.17;2.03;;;19.40;99.90;;;;;;5037118;28;20487;-50